Time;durP1;ratioP1;P1;durP2;ratioP2;P2;SDS_P1;SDS_P2;PMS_P1;PMS_P2;Temp;Humidity;BMP_temperature;BMP_pressure;BME280_temperature;BME280_humidity;BME280_pressure;Samples;Min_cycle;Max_cycle;Signal;HPM_P1;HPM_P2
2023/06/18 00:02:06;;;;;;;14.60;11.28;;;;;;;17.23;100.00;100423.63;5029105;57;1145043;-68
2023/06/18 00:07:12;;;;;;;13.87;11.33;;;;;;;16.96;100.00;100424.41;5093374;57;1145315;-78
2023/06/18 00:12:17;;;;;;;16.60;12.03;;;;;;;16.75;100.00;100426.16;5073117;57;1145035;-77
2023/06/18 00:17:23;;;;;;;13.90;12.37;;;;;;;16.54;100.00;100418.52;5072665;57;1145045;-76
2023/06/18 00:22:29;;;;;;;20.03;13.70;;;;;;;16.45;100.00;100422.15;5093431;57;1145232;-71
2023/06/18 00:27:35;;;;;;;15.00;13.40;;;;;;;16.57;100.00;100427.54;4989785;58;1145168;-77
2023/06/18 00:32:43;;;;;;;16.32;13.75;;;;;;;16.76;100.00;100431.34;4990285;58;1145511;-75
2023/06/18 00:37:48;;;;;;;20.20;13.87;;;;;;;16.89;100.00;100428.20;5009768;58;1145085;-69
2023/06/18 00:42:55;;;;;;;15.33;13.50;;;;;;;16.83;100.00;100437.69;5026228;57;1145125;-71
2023/06/18 00:48:00;;;;;;;15.87;14.17;;;;;;;16.85;100.00;100434.86;5085854;56;1144990;-71
2023/06/18 00:53:07;;;;;;;18.17;13.33;;;;;;;16.90;100.00;100429.88;5073589;56;1145164;-77
2023/06/18 00:58:15;;;;;;;15.73;12.73;;;;;;;17.00;100.00;100441.76;5010724;56;1145082;-76
2023/06/18 01:03:21;;;;;;;17.55;12.63;;;;;;;17.05;100.00;100434.94;5051007;57;1145057;-75
2023/06/18 01:08:28;;;;;;;16.63;12.80;;;;;;;17.05;100.00;100434.94;5073236;57;1145173;-74
2023/06/18 01:13:40;;;;;;;16.03;14.33;;;;;;;17.09;100.00;100422.09;5093786;57;1145156;-73
2023/06/18 01:18:50;;;;;;;21.93;12.43;;;;;;;16.98;100.00;100421.05;5074279;57;1145272;-78
2023/06/18 01:24:19;;;;;;;15.90;12.70;;;;;;;16.67;100.00;100434.95;5073381;57;1145420;-76
2023/06/18 01:29:26;;;;;;;17.27;13.13;;;;;;;16.56;100.00;100430.37;5072905;57;1145284;-75
2023/06/18 01:34:32;;;;;;;18.12;13.30;;;;;;;16.62;100.00;100427.08;5093300;57;1152974;-72
2023/06/18 01:39:48;;;;;;;16.42;12.40;;;;;;;16.68;100.00;100421.94;5072715;57;1145138;-79
2023/06/18 01:45:16;;;;;;;14.57;12.27;;;;;;;16.71;100.00;100424.30;4999270;57;1145302;-73
2023/06/18 01:50:23;;;;;;;15.80;12.37;;;;;;;16.66;100.00;100421.26;4990360;57;1145222;-69
2023/06/18 01:55:33;;;;;;;13.50;12.10;;;;;;;16.62;100.00;100417.73;5049356;57;1145157;-75
2023/06/18 02:00:38;;;;;;;16.55;11.68;;;;;;;16.71;100.00;100418.12;5044059;57;1145050;-76
2023/06/18 02:05:44;;;;;;;18.87;13.00;;;;;;;16.75;100.00;100417.64;5069242;57;1145099;-74
2023/06/18 02:10:51;;;;;;;18.73;13.53;;;;;;;16.78;100.00;100411.15;5038010;57;1145126;-78
2023/06/18 02:15:57;;;;;;;15.53;13.70;;;;;;;16.82;100.00;100417.81;5001372;57;1145079;-68
2023/06/18 02:21:02;;;;;;;16.10;12.93;;;;;;;16.71;100.00;100417.62;5068967;57;1145329;-72
2023/06/18 02:26:08;;;;;;;16.90;12.03;;;;;;;16.67;100.00;100426.94;5088645;57;1145144;-70
2023/06/18 02:31:14;;;;;;;22.63;13.33;;;;;;;16.60;100.00;100428.56;5067888;56;1144917;-73
2023/06/18 02:36:20;;;;;;;14.87;13.17;;;;;;;16.60;100.00;100427.23;5060346;57;1144934;-74
2023/06/18 02:41:26;;;;;;;13.83;12.43;;;;;;;16.64;100.00;100435.80;5058271;57;1144919;-78
2023/06/18 02:46:32;;;;;;;12.53;11.33;;;;;;;16.54;100.00;100444.71;4986614;57;1153505;-72
2023/06/18 02:51:38;;;;;;;18.05;11.85;;;;;;;16.26;100.00;100449.05;5034889;57;1145026;-79
2023/06/18 02:56:44;;;;;;;15.50;12.10;;;;;;;16.01;100.00;100467.58;5089248;57;1145097;-72
2023/06/18 03:01:50;;;;;;;13.10;11.80;;;;;;;15.80;100.00;100463.90;5070185;57;1145241;-73
2023/06/18 03:07:00;;;;;;;14.23;12.83;;;;;;;15.66;100.00;100468.44;5069866;57;1145108;-75
2023/06/18 03:12:07;;;;;;;11.97;10.57;;;;;;;15.48;100.00;100463.07;4997176;57;1144945;-76
2023/06/18 03:17:13;;;;;;;20.17;11.50;;;;;;;15.46;100.00;100463.71;5007582;57;1145120;-70
2023/06/18 03:22:20;;;;;;;15.03;12.13;;;;;;;15.36;100.00;100467.45;4987603;57;1145261;-77
2023/06/18 03:27:25;;;;;;;15.03;11.80;;;;;;;15.30;100.00;100474.70;4987749;57;1144932;-71
2023/06/18 03:32:32;;;;;;;15.50;13.88;;;;;;;15.23;100.00;100479.80;4998887;57;1145226;-74
2023/06/18 03:37:40;;;;;;;16.55;14.40;;;;;;;15.14;100.00;100485.52;4996123;56;1145016;-76
2023/06/18 03:42:46;;;;;;;15.75;13.18;;;;;;;15.21;100.00;100485.78;4986971;57;1145270;-75
2023/06/18 03:47:53;;;;;;;16.40;13.73;;;;;;;15.46;100.00;100483.70;5007038;57;1144991;-77
2023/06/18 03:53:01;;;;;;;29.73;15.67;;;;;;;15.59;100.00;100490.52;5007188;57;1145410;-69
2023/06/18 03:58:06;;;;;;;24.30;15.23;;;;;;;15.54;100.00;100502.12;4883919;58;1145117;-70
2023/06/18 04:03:12;;;;;;;19.57;15.87;;;;;;;15.54;100.00;100496.78;5064342;57;1145007;-73
2023/06/18 04:08:19;;;;;;;18.93;15.03;;;;;;;15.51;100.00;100507.74;5068955;56;1145189;-73
2023/06/18 04:13:24;;;;;;;17.03;13.93;;;;;;;15.41;100.00;100522.48;4987457;58;1144930;-77
2023/06/18 04:18:30;;;;;;;18.43;14.10;;;;;;;15.37;100.00;100525.09;5007035;57;1145065;-72
2023/06/18 04:23:36;;;;;;;19.50;13.47;;;;;;;15.44;100.00;100521.66;5040489;56;1145135;-72
2023/06/18 04:28:41;;;;;;;16.93;15.27;;;;;;;15.56;100.00;100521.50;5035119;56;1145280;-71
2023/06/18 04:33:47;;;;;;;19.17;14.78;;;;;;;15.60;100.00;100525.02;5081046;57;1145261;-71
2023/06/18 04:38:53;;;;;;;16.37;14.00;;;;;;;15.62;100.00;100534.20;5065064;57;1145176;-78
2023/06/18 04:43:59;;;;;;;15.10;13.57;;;;;;;15.69;100.00;100530.80;5004139;57;1145093;-78
2023/06/18 04:49:05;;;;;;;23.92;15.28;;;;;;;15.70;100.00;100531.14;4988796;57;1145276;-74
2023/06/18 04:54:11;;;;;;;17.07;13.70;;;;;;;15.78;100.00;100533.88;5007115;57;1144940;-70
2023/06/18 04:59:17;;;;;;;15.40;12.84;;;;;;;15.99;100.00;100528.73;4988526;57;1145106;-74
2023/06/18 05:04:23;;;;;;;19.33;14.20;;;;;;;16.23;100.00;100529.42;5051692;57;1144952;-69
2023/06/18 05:09:30;;;;;;;19.10;15.33;;;;;;;16.39;100.00;100530.38;5072457;57;1144872;-80
2023/06/18 05:14:36;;;;;;;16.93;15.07;;;;;;;16.51;100.00;100532.29;5058906;57;1154715;-72
2023/06/18 05:19:42;;;;;;;17.37;14.97;;;;;;;16.57;100.00;100532.17;5035758;57;1145458;-77
2023/06/18 05:24:48;;;;;;;19.63;13.40;;;;;;;16.65;100.00;100532.27;5006953;57;1144985;-74
2023/06/18 05:29:54;;;;;;;15.43;12.77;;;;;;;16.72;100.00;100532.80;5006129;57;1144909;-77
2023/06/18 05:35:00;;;;;;;17.50;13.90;;;;;;;16.92;100.00;100533.91;4989026;57;1144966;-78
2023/06/18 05:40:08;;;;;;;15.83;11.85;;;;;;;17.18;100.00;100535.53;5025023;57;1145300;-75
2023/06/18 05:45:13;;;;;;;15.00;12.03;;;;;;;17.36;100.00;100539.44;5075724;57;1145049;-75
2023/06/18 05:50:21;;;;;;;14.03;12.03;;;;;;;17.51;100.00;100542.33;5068223;57;1145023;-67
2023/06/18 05:55:26;;;;;;;16.42;12.02;;;;;;;17.65;100.00;100546.23;5040976;57;1145424;-77
2023/06/18 06:00:32;;;;;;;13.77;12.23;;;;;;;17.83;100.00;100545.11;5029078;57;1145230;-71
2023/06/18 06:05:38;;;;;;;16.67;12.33;;;;;;;17.98;100.00;100547.12;5068850;57;1145226;-81
2023/06/18 06:10:44;;;;;;;12.30;10.85;;;;;;;18.11;100.00;100553.66;5018743;57;1145544;-78
2023/06/18 06:15:50;;;;;;;11.30;10.15;;;;;;;18.16;100.00;100555.34;5006187;57;1144980;-69
2023/06/18 06:20:56;;;;;;;9.60;8.67;;;;;;;18.25;100.00;100560.18;4986819;57;1145142;-70
2023/06/18 06:26:02;;;;;;;10.93;9.83;;;;;;;18.27;100.00;100561.69;4986935;57;1141128;-77
2023/06/18 06:31:08;;;;;;;11.67;8.50;;;;;;;18.56;100.00;100558.98;4986270;57;1143015;-73
2023/06/18 06:36:14;;;;;;;16.20;10.30;;;;;;;18.83;100.00;100559.96;5005847;57;1142998;-75
2023/06/18 06:41:20;;;;;;;12.55;9.38;;;;;;;19.03;100.00;100556.40;4962705;57;1145274;-70
2023/06/18 06:46:26;;;;;;;10.60;9.58;;;;;;;19.00;100.00;100555.39;4991546;57;1143298;-74
2023/06/18 06:51:31;;;;;;;12.15;9.40;;;;;;;18.98;100.00;100550.70;5089344;57;1142881;-73
2023/06/18 06:56:39;;;;;;;14.20;10.58;;;;;;;19.02;100.00;100550.70;5062012;56;1142951;-75
2023/06/18 07:01:46;;;;;;;9.73;8.73;;;;;;;19.32;100.00;100544.55;5052260;56;1145197;-74
2023/06/18 07:06:52;;;;;;;8.18;6.90;;;;;;;19.68;100.00;100549.42;5091996;56;1141091;-67
2023/06/18 07:11:58;;;;;;;7.17;6.53;;;;;;;19.92;100.00;100544.39;4991341;57;1140979;-77
2023/06/18 07:17:04;;;;;;;7.80;7.00;;;;;;;20.12;100.00;100551.46;5050074;57;1150562;-74
2023/06/18 07:22:09;;;;;;;8.60;7.05;;;;;;;20.47;100.00;100550.83;4973246;57;1141009;-76
2023/06/18 07:27:15;;;;;;;9.58;6.75;;;;;;;20.64;100.00;100558.23;4969117;57;1140752;-72
2023/06/18 07:32:21;;;;;;;10.70;7.87;;;;;;;20.88;100.00;100557.98;4935878;57;1140902;-75
2023/06/18 07:37:26;;;;;;;8.48;7.53;;;;;;;20.96;100.00;100558.39;4979900;58;1142883;-78
2023/06/18 07:42:32;;;;;;;7.70;6.75;;;;;;;21.01;100.00;100553.30;4944733;58;1140841;-73
2023/06/18 07:47:37;;;;;;;8.10;7.00;;;;;;;21.09;100.00;100558.58;4906687;57;1140842;-79
2023/06/18 07:52:43;;;;;;;8.48;7.65;;;;;;;20.99;100.00;100553.48;4985920;58;1140851;-73
2023/06/18 07:57:48;;;;;;;8.20;7.37;;;;;;;20.69;100.00;100562.05;4890466;58;1141047;-74
2023/06/18 08:02:54;;;;;;;9.40;6.63;;;;;;;20.43;100.00;100570.20;4941158;57;1140991;-77
2023/06/18 08:08:00;;;;;;;6.30;5.75;;;;;;;20.31;100.00;100571.95;5005645;57;1141187;-78
2023/06/18 08:13:05;;;;;;;6.33;5.75;;;;;;;20.29;100.00;100576.67;4984915;58;1140805;-71
2023/06/18 08:18:11;;;;;;;7.37;6.78;;;;;;;20.47;100.00;100576.35;5071310;57;1140778;-77
2023/06/18 08:23:17;;;;;;;8.20;6.75;;;;;;;20.98;100.00;100567.11;4964996;58;1140941;-75
2023/06/18 08:28:22;;;;;;;7.28;6.53;;;;;;;21.52;100.00;100564.98;5059535;57;1141112;-72
2023/06/18 08:33:28;;;;;;;8.55;5.80;;;;;;;21.97;100.00;100567.86;5093279;56;1140709;-71
2023/06/18 08:38:33;;;;;;;6.20;5.58;;;;;;;22.43;100.00;100575.05;5093201;56;1140779;-72
2023/06/18 08:43:39;;;;;;;5.10;4.70;;;;;;;22.61;100.00;100574.55;5095517;56;1140946;-80
2023/06/18 08:48:49;;;;;;;4.37;4.07;;;;;;;22.27;96.75;100565.05;4875383;58;1141067;-75
2023/06/18 08:54:17;;;;;;;8.23;4.90;;;;;;;21.89;93.76;100569.31;5011260;56;1138843;-71
2023/06/18 08:59:23;;;;;;;9.38;4.50;;;;;;;21.61;94.27;100575.94;4988388;56;1138858;-73
2023/06/18 09:04:30;;;;;;;4.97;4.25;;;;;;;21.39;95.26;100580.94;5086926;57;1138631;-79
2023/06/18 09:09:38;;;;;;;3.50;3.30;;;;;;;21.28;94.70;100581.42;5043780;57;1139418;-76
2023/06/18 09:14:45;;;;;;;4.25;3.85;;;;;;;21.11;93.12;100586.63;4968405;58;1138987;-77
2023/06/18 09:19:52;;;;;;;4.87;4.37;;;;;;;20.97;94.60;100581.58;4989151;58;1138708;-80
2023/06/18 09:24:59;;;;;;;5.75;5.30;;;;;;;20.92;96.44;100580.81;4969201;58;1138827;-75
2023/06/18 09:30:08;;;;;;;5.83;5.33;;;;;;;20.91;96.24;100577.80;4907416;58;1138723;-75
2023/06/18 09:35:16;;;;;;;7.33;5.50;;;;;;;20.88;96.56;100571.44;4889900;58;1139060;-76
2023/06/18 09:40:25;;;;;;;6.33;5.40;;;;;;;20.94;98.29;100577.40;4908959;58;1138806;-74
2023/06/18 09:45:30;;;;;;;5.17;4.67;;;;;;;21.07;98.11;100575.44;4886227;58;1138885;-79
2023/06/18 09:50:37;;;;;;;5.05;4.65;;;;;;;21.12;96.46;100569.47;4890136;58;1139205;-78
2023/06/18 09:55:44;;;;;;;14.10;5.00;;;;;;;21.15;96.85;100570.45;4909074;58;1139205;-80
2023/06/18 10:01:05;;;;;;;6.60;5.67;;;;;;;21.37;97.78;100562.83;4907677;58;1141144;-69
2023/06/18 10:06:22;;;;;;;6.28;5.78;;;;;;;21.74;97.69;100561.28;4968482;57;1139032;-73
2023/06/18 10:11:30;;;;;;;8.10;4.97;;;;;;;22.30;98.39;100554.73;4973374;58;1138950;-70
2023/06/18 10:16:37;;;;;;;5.35;4.53;;;;;;;22.69;94.49;100553.36;5006631;58;1138674;-73
2023/06/18 10:21:50;;;;;;;6.60;5.28;;;;;;;22.95;97.30;100546.81;4987375;57;1138943;-75
2023/06/18 10:26:57;;;;;;;4.70;4.20;;;;;;;23.34;88.84;100548.05;5003865;57;1139090;-72
2023/06/18 10:32:04;;;;;;;3.80;3.45;;;;;;;23.47;88.11;100546.75;5041494;56;1139088;-76
2023/06/18 10:37:11;;;;;;;3.12;2.90;;;;;;;23.30;83.33;100554.36;5024709;57;1138787;-72
2023/06/18 10:42:19;;;;;;;2.80;2.45;;;;;;;23.09;82.02;100549.06;5016336;57;1138803;-74
2023/06/18 10:47:28;;;;;;;6.50;3.42;;;;;;;23.14;82.30;100545.26;4996366;57;1138872;-70
2023/06/18 10:52:36;;;;;;;3.85;3.52;;;;;;;23.44;79.63;100543.94;5017632;57;1138784;-77
2023/06/18 10:57:50;;;;;;;4.22;3.30;;;;;;;23.89;79.97;100538.89;4976720;57;1138918;-73
2023/06/18 11:03:13;;;;;;;3.90;3.55;;;;;;;24.25;78.69;100522.34;5010767;57;1138686;-77
2023/06/18 11:08:34;;;;;;;3.62;3.33;;;;;;;24.53;77.15;100519.41;5001141;57;1138802;-72
2023/06/18 11:13:45;;;;;;;6.26;3.34;;;;;;;24.59;76.03;100513.17;5038638;57;1138854;-73
2023/06/18 11:19:02;;;;;;;4.08;3.67;;;;;;;24.52;73.57;100506.92;4999110;57;1138655;-73
2023/06/18 11:23:59;;;;;;;3.50;3.20;;;;;;;24.17;73.39;100505.77;4990429;57;1138634;-71
2023/06/18 11:29:05;;;;;;;5.50;4.20;;;;;;;24.02;74.53;100497.55;4939978;58;1139164;-76
2023/06/18 11:34:12;;;;;;;3.85;3.55;;;;;;;24.09;72.24;100491.64;5089848;57;1139103;-76
2023/06/18 11:39:17;;;;;;;3.50;3.20;;;;;;;24.30;73.96;100498.72;5066452;57;1138883;-77
2023/06/18 11:44:27;;;;;;;4.42;3.95;;;;;;;24.51;74.86;100491.22;5066859;57;1138943;-76
2023/06/18 11:49:33;;;;;;;4.00;3.60;;;;;;;24.71;71.92;100491.19;4904812;57;1138916;-69
2023/06/18 11:54:42;;;;;;;8.03;3.98;;;;;;;24.85;72.49;100491.98;5040196;56;1138986;-81
2023/06/18 11:59:51;;;;;;;4.30;3.50;;;;;;;24.86;71.07;100489.06;4990348;57;1140357;-80
2023/06/18 12:05:05;;;;;;;6.87;3.57;;;;;;;25.00;71.17;100487.70;5089575;57;1138807;-77
2023/06/18 12:10:13;;;;;;;6.05;3.95;;;;;;;25.08;71.61;100487.44;5069050;57;1138638;-75
2023/06/18 12:15:26;;;;;;;4.10;3.75;;;;;;;25.32;73.76;100471.00;5068538;57;1138914;-77
2023/06/18 12:20:31;;;;;;;5.75;4.47;;;;;;;25.63;74.38;100475.65;5089539;57;1139145;-77
2023/06/18 12:25:37;;;;;;;4.83;3.62;;;;;;;25.74;75.84;100474.41;5070387;57;1138913;-74
2023/06/18 12:30:44;;;;;;;6.37;4.37;;;;;;;26.00;74.68;100476.09;4976330;57;1138771;-80
2023/06/18 12:36:02;;;;;;;3.83;3.57;;;;;;;26.25;71.47;100471.52;5034805;56;1138972;-74
2023/06/18 12:41:04;;;;;;;8.55;3.87;;;;;;;26.40;68.69;100469.01;4987809;57;1138682;-77
2023/06/18 12:46:10;;;;;;;4.40;4.10;;;;;;;26.51;68.00;100475.88;4994404;57;1138887;-74
2023/06/18 12:51:15;;;;;;;4.12;3.72;;;;;;;26.69;69.64;100476.42;4860330;59;1138993;-78
2023/06/18 12:56:23;;;;;;;4.03;3.75;;;;;;;26.53;69.63;100476.48;5070458;57;1138910;-74
2023/06/18 13:01:28;;;;;;;6.22;5.05;;;;;;;26.52;68.13;100475.34;4965200;58;1139248;-79
2023/06/18 13:06:34;;;;;;;9.50;4.80;;;;;;;26.19;68.41;100473.74;5091141;57;1138812;-76
2023/06/18 13:11:39;;;;;;;6.28;4.35;;;;;;;26.02;70.04;100471.28;5055478;57;1138777;-77
2023/06/18 13:16:46;;;;;;;4.83;3.65;;;;;;;26.00;69.92;100467.13;5031268;56;1139117;-73
2023/06/18 13:21:52;;;;;;;4.28;3.98;;;;;;;26.02;71.18;100466.38;5058162;57;1139230;-77
2023/06/18 13:26:57;;;;;;;6.60;4.75;;;;;;;26.16;71.70;100464.69;5030550;57;1139067;-71
2023/06/18 13:32:03;;;;;;;12.98;4.67;;;;;;;26.31;70.63;100462.19;5019575;56;1138993;-79
2023/06/18 13:37:09;;;;;;;4.83;4.47;;;;;;;26.42;70.10;100458.25;5067821;56;1141222;-68
2023/06/18 13:42:16;;;;;;;6.65;4.65;;;;;;;26.48;68.38;100457.33;5067177;56;1138727;-77
2023/06/18 13:47:22;;;;;;;4.92;4.35;;;;;;;26.44;68.61;100449.33;5029904;57;1138753;-69
2023/06/18 13:52:28;;;;;;;5.17;4.78;;;;;;;26.31;66.49;100448.63;5044540;57;1138634;-77
2023/06/18 13:57:33;;;;;;;5.08;3.67;;;;;;;26.11;67.92;100455.59;5088911;56;1138719;-71
2023/06/18 14:02:39;;;;;;;4.40;4.20;;;;;;;25.85;66.16;100449.31;5068890;57;1138923;-79
2023/06/18 14:07:45;;;;;;;4.30;4.00;;;;;;;25.79;68.48;100448.86;5050036;56;1138679;-73
2023/06/18 14:12:51;;;;;;;3.85;3.55;;;;;;;25.79;68.89;100443.97;5089468;57;1138924;-78
2023/06/18 14:17:56;;;;;;;3.80;3.50;;;;;;;25.79;67.03;100450.22;5069429;57;1138994;-74
2023/06/18 14:23:02;;;;;;;3.83;3.52;;;;;;;25.77;67.13;100455.02;5071883;56;1138890;-77
2023/06/18 14:28:08;;;;;;;4.33;4.03;;;;;;;25.74;67.49;100460.87;5031255;56;1138909;-77
2023/06/18 14:33:13;;;;;;;4.75;3.50;;;;;;;25.47;67.73;100460.71;4986673;58;1139118;-75
2023/06/18 14:38:19;;;;;;;3.72;3.47;;;;;;;24.99;66.15;100472.50;5007763;56;1138802;-78
2023/06/18 14:43:25;;;;;;;4.50;3.65;;;;;;;24.41;67.59;100484.59;5034063;56;1138847;-73
2023/06/18 14:48:31;;;;;;;5.42;3.87;;;;;;;23.91;68.48;100484.14;4944940;57;1138942;-77
2023/06/18 14:53:38;;;;;;;12.30;3.83;;;;;;;23.61;75.91;100475.59;4890411;57;1138694;-76
2023/06/18 14:58:43;;;;;;;15.30;4.45;;;;;;;23.08;81.47;100502.88;4888110;57;1214971;-70
2023/06/18 15:03:49;;;;;;;5.88;5.12;;;;;;;22.93;86.38;100478.73;4971662;57;1141001;-75
2023/06/18 15:08:55;;;;;;;4.55;3.90;;;;;;;23.02;87.74;100499.14;4966539;57;1139111;-76
2023/06/18 15:14:01;;;;;;;4.27;3.97;;;;;;;23.22;90.28;100501.90;4968274;57;1138928;-75
2023/06/18 15:19:07;;;;;;;4.83;4.42;;;;;;;23.53;90.04;100505.45;4967128;57;1138808;-70
2023/06/18 15:24:12;;;;;;;7.75;3.47;;;;;;;23.85;86.86;100507.92;5037075;57;1138860;-73
2023/06/18 15:29:18;;;;;;;6.83;3.90;;;;;;;24.09;86.92;100503.80;5037848;57;1138880;-79
2023/06/18 15:34:23;;;;;;;3.33;3.12;;;;;;;24.49;87.54;100512.23;5070610;57;1139002;-78
2023/06/18 15:39:29;;;;;;;5.83;3.20;;;;;;;24.78;83.39;100505.52;5090387;57;1138742;-74
2023/06/18 15:44:35;;;;;;;3.02;2.83;;;;;;;24.71;78.53;100500.66;5011420;57;1139141;-74
2023/06/18 15:49:40;;;;;;;4.67;2.70;;;;;;;24.67;76.86;100508.88;5077012;56;1139126;-73
2023/06/18 15:54:46;;;;;;;2.47;2.27;;;;;;;24.67;75.97;100502.63;5111806;56;1138908;-75
2023/06/18 15:59:52;;;;;;;2.40;2.20;;;;;;;24.67;73.71;100505.34;5089007;56;1138982;-72
2023/06/18 16:04:58;;;;;;;4.83;2.80;;;;;;;24.62;74.22;100511.89;5070092;57;1138891;-80
2023/06/18 16:10:04;;;;;;;2.37;2.27;;;;;;;24.55;73.11;100514.63;5070945;57;1139010;-73
2023/06/18 16:15:10;;;;;;;2.87;2.67;;;;;;;24.37;71.97;100519.31;5089284;57;1138832;-71
2023/06/18 16:20:17;;;;;;;3.65;1.98;;;;;;;24.21;73.30;100519.70;5071556;57;1139065;-72
2023/06/18 16:25:22;;;;;;;3.30;2.20;;;;;;;23.99;74.29;100525.80;5067782;57;1139042;-73
2023/06/18 16:30:29;;;;;;;3.75;2.22;;;;;;;23.81;74.23;100526.42;5088545;57;1138910;-67
2023/06/18 16:35:35;;;;;;;4.17;2.62;;;;;;;23.87;75.22;100526.62;5057449;57;1138955;-80
2023/06/18 16:40:41;;;;;;;3.05;2.83;;;;;;;24.00;74.57;100523.94;5016380;57;1138840;-77
2023/06/18 16:45:47;;;;;;;3.00;2.52;;;;;;;23.98;73.36;100522.81;5031453;57;1138911;-73
2023/06/18 16:50:53;;;;;;;3.40;3.10;;;;;;;23.92;74.34;100533.60;4996304;57;1138842;-74
2023/06/18 16:55:58;;;;;;;5.70;3.10;;;;;;;23.78;74.61;100531.40;5002879;57;1139913;-75
2023/06/18 17:01:04;;;;;;;3.45;3.22;;;;;;;23.61;75.05;100530.94;4992540;57;1138930;-79
2023/06/18 17:06:10;;;;;;;3.12;2.92;;;;;;;23.57;75.36;100540.47;5015491;57;1139077;-72
2023/06/18 17:11:18;;;;;;;4.08;3.60;;;;;;;23.39;74.76;100537.47;5011376;57;1138687;-79
2023/06/18 17:16:24;;;;;;;2.60;2.50;;;;;;;23.39;74.76;100537.47;5028423;57;1138855;-72
2023/06/18 17:21:30;;;;;;;6.40;3.65;;;;;;;23.26;75.85;100548.20;5031773;57;1138737;-78
2023/06/18 17:26:36;;;;;;;3.70;3.27;;;;;;;23.16;77.12;100548.59;4996892;57;1139179;-76
2023/06/18 17:31:42;;;;;;;5.95;4.78;;;;;;;23.11;77.60;100547.00;4967880;57;1138671;-77
2023/06/18 17:36:49;;;;;;;3.80;3.50;;;;;;;22.99;77.93;100545.39;4977186;57;1138960;-73
2023/06/18 17:41:55;;;;;;;3.75;3.45;;;;;;;22.89;78.31;100538.70;4977083;57;1139006;-74
2023/06/18 17:47:00;;;;;;;3.23;3.03;;;;;;;22.87;79.32;100534.02;4966611;57;1138903;-77
2023/06/18 17:52:06;;;;;;;3.85;3.65;;;;;;;22.90;79.85;100532.27;4946167;58;1138792;-71
2023/06/18 17:57:12;;;;;;;4.15;3.70;;;;;;;22.88;79.75;100527.08;4965857;58;1138681;-77
2023/06/18 18:02:18;;;;;;;5.90;3.87;;;;;;;22.96;80.54;100519.32;4985013;57;1138750;-75
2023/06/18 18:07:23;;;;;;;5.50;4.95;;;;;;;22.94;80.21;100521.38;5020431;57;1138644;-73
2023/06/18 18:12:29;;;;;;;4.05;3.42;;;;;;;22.82;79.79;100524.33;4994071;57;1138612;-76
2023/06/18 18:17:35;;;;;;;4.67;3.30;;;;;;;22.72;80.21;100520.10;4970563;57;1138722;-74
2023/06/18 18:22:40;;;;;;;4.30;4.00;;;;;;;22.79;80.76;100522.34;4987245;57;1138735;-75
2023/06/18 18:27:47;;;;;;;3.95;3.70;;;;;;;22.78;80.83;100530.62;4987032;57;1138715;-75
2023/06/18 18:32:52;;;;;;;4.15;3.75;;;;;;;22.71;80.94;100535.96;5009154;57;1138741;-79
2023/06/18 18:37:58;;;;;;;11.63;4.22;;;;;;;22.79;82.20;100538.52;4984870;57;1138931;-74
2023/06/18 18:43:03;;;;;;;4.80;4.15;;;;;;;22.80;81.80;100546.09;5027599;57;1140977;-73
2023/06/18 18:48:09;;;;;;;6.28;4.78;;;;;;;22.75;82.12;100547.19;5046700;57;1138751;-73
2023/06/18 18:53:15;;;;;;;5.40;5.00;;;;;;;22.74;83.20;100549.05;5029878;57;1138829;-74
2023/06/18 18:58:20;;;;;;;14.55;8.80;;;;;;;22.75;82.71;100555.28;5003898;57;1138935;-72
2023/06/18 19:03:27;;;;;;;10.72;7.70;;;;;;;22.76;83.67;100560.48;5044423;57;1140829;-77
2023/06/18 19:08:33;;;;;;;9.38;6.00;;;;;;;22.73;84.99;100564.91;5013010;57;1140824;-82
2023/06/18 19:13:39;;;;;;;7.15;6.45;;;;;;;22.74;85.83;100571.14;4947698;57;1138991;-71
2023/06/18 19:18:44;;;;;;;7.47;6.87;;;;;;;22.74;86.43;100576.53;4967958;58;1138785;-79
2023/06/18 19:23:51;;;;;;;6.88;6.28;;;;;;;22.63;86.51;100579.23;4950760;58;1138924;-70
2023/06/18 19:28:56;;;;;;;7.05;6.45;;;;;;;22.45;87.38;100580.25;4951235;57;1138820;-80
2023/06/18 19:34:02;;;;;;;7.45;6.85;;;;;;;22.38;88.84;100582.87;5015352;57;1138893;-74
2023/06/18 19:39:07;;;;;;;11.28;6.74;;;;;;;22.17;88.81;100584.22;5025082;57;1139036;-75
2023/06/18 19:44:13;;;;;;;7.37;6.15;;;;;;;21.88;89.52;100585.66;4999777;57;1141333;-80
2023/06/18 19:49:19;;;;;;;7.70;6.08;;;;;;;21.76;90.63;100588.85;5013647;57;1138988;-82
2023/06/18 19:54:25;;;;;;;7.55;6.85;;;;;;;21.61;90.73;100585.87;5082960;57;1138861;-76
2023/06/18 19:59:30;;;;;;;8.03;7.25;;;;;;;21.56;92.06;100599.05;5062159;57;1139061;-77
2023/06/18 20:04:36;;;;;;;11.15;9.03;;;;;;;21.69;93.13;100598.70;5047358;57;1138647;-77
2023/06/18 20:09:41;;;;;;;13.40;12.03;;;;;;;21.78;93.19;100604.82;5036079;57;1140931;-71
2023/06/18 20:14:48;;;;;;;11.55;10.38;;;;;;;21.59;93.43;100607.59;5041820;57;1142959;-71
2023/06/18 20:19:54;;;;;;;14.93;13.18;;;;;;;21.60;94.33;100608.42;5073865;57;1143123;-77
2023/06/18 20:25:00;;;;;;;24.80;17.37;;;;;;;21.62;94.68;100613.12;5100063;57;1143097;-76
2023/06/18 20:30:07;;;;;;;17.10;10.90;;;;;;;21.62;95.09;100608.56;5078762;57;1143123;-67
2023/06/18 20:35:13;;;;;;;11.18;9.53;;;;;;;21.67;95.10;100612.88;5050581;57;1143236;-76
2023/06/18 20:40:18;;;;;;;10.70;8.33;;;;;;;21.73;95.38;100608.58;5047143;57;1140965;-80
2023/06/18 20:45:24;;;;;;;19.20;14.63;;;;;;;21.75;95.32;100606.54;5066974;57;1141137;-78
2023/06/18 20:50:30;;;;;;;17.48;14.25;;;;;;;21.64;94.44;100606.52;5067092;57;1143028;-73
2023/06/18 20:55:36;;;;;;;14.23;11.57;;;;;;;21.25;93.97;100604.65;5056726;57;1143044;-74
2023/06/18 21:00:41;;;;;;;13.43;11.38;;;;;;;21.03;96.03;100607.73;4970724;57;1142948;-74
2023/06/18 21:05:47;;;;;;;15.13;12.53;;;;;;;21.02;96.90;100621.70;5020452;57;1143050;-74
2023/06/18 21:10:53;;;;;;;17.45;9.65;;;;;;;20.90;96.69;100606.20;4884358;59;1142915;-74
2023/06/18 21:15:59;;;;;;;11.88;9.15;;;;;;;20.83;97.12;100602.05;4883350;59;1141119;-75
2023/06/18 21:21:05;;;;;;;12.60;10.38;;;;;;;20.82;98.11;100596.34;4884571;59;1141034;-79
2023/06/18 21:26:12;;;;;;;13.65;10.55;;;;;;;20.87;98.52;100603.37;4882528;59;1143119;-76
2023/06/18 21:31:17;;;;;;;9.60;8.63;;;;;;;20.87;98.38;100603.88;4903842;57;1142901;-71
2023/06/18 21:36:23;;;;;;;9.65;8.73;;;;;;;20.78;97.90;100612.52;4835612;59;1138842;-76
2023/06/18 21:41:29;;;;;;;12.23;9.20;;;;;;;20.66;97.89;100609.44;4808230;60;1139210;-73
2023/06/18 21:46:35;;;;;;;22.82;12.28;;;;;;;20.50;97.80;100612.77;4731243;60;1140881;-71
2023/06/18 21:51:40;;;;;;;40.50;18.05;;;;;;;20.34;98.21;100611.86;4720132;61;1143137;-79
2023/06/18 21:56:46;;;;;;;48.75;20.15;;;;;;;20.23;98.27;100609.61;4795541;59;1143070;-73
2023/06/18 22:01:52;;;;;;;47.15;18.62;;;;;;;20.17;98.48;100610.31;4987347;58;1143084;-75
2023/06/18 22:06:57;;;;;;;21.23;13.40;;;;;;;20.20;99.26;100609.13;4914253;58;1143414;-75
2023/06/18 22:12:03;;;;;;;13.47;10.60;;;;;;;20.26;99.56;100611.10;4887954;59;1143053;-75
2023/06/18 22:17:12;;;;;;;10.70;9.60;;;;;;;20.26;99.43;100614.62;4889326;58;1142936;-73
2023/06/18 22:22:16;;;;;;;38.33;18.48;;;;;;;20.09;98.38;100613.06;4908288;59;1140734;-71
2023/06/18 22:27:22;;;;;;;73.17;30.05;;;;;;;19.96;98.57;100616.84;4888429;59;1143128;-74
2023/06/18 22:32:27;;;;;;;125.62;44.25;;;;;;;19.85;98.67;100617.26;4889498;57;1142972;-73
2023/06/18 22:37:33;;;;;;;130.07;49.70;;;;;;;19.72;98.38;100631.22;5017999;57;1144974;-76
2023/06/18 22:42:39;;;;;;;141.35;53.92;;;;;;;19.62;98.77;100630.11;4988502;57;1145072;-73
2023/06/18 22:47:44;;;;;;;121.02;46.33;;;;;;;19.48;99.03;100629.97;4987218;58;1145112;-73
2023/06/18 22:52:50;;;;;;;90.10;37.50;;;;;;;19.39;99.45;100624.32;5010799;57;1145206;-76